Kezdőlap
METAR-TAF:

METAR-TAF

Repülőterek :

Trondheim, Norvégia

földrajzi szélesség: 63-28N, földrajzi hosszúság: 010-56E, magasság: 1 m

Jelenlegi meteorológiai megfigyelések

A jelentés 9 perccel ezelõtt készült, 20:20 UTC
Különbözõ irányokból fújó szél 2 kt
Hőmérséklet 16°C
Páratartalom 82%
Légköri nyomás 1017 hPa
Látótávolság 10 km, vagy több
felhőtlen 1500 m magasságban, és nincs gomolyfelhõ

METAR: ENVA 192020Z VRB02KT CAVOK 16/13 Q1017 RMK WIND 670FT VRB02KT

Idő: 22:29 (20:29 UTC)

Előrejelzés

A jelentés 3 órával és 29 perccel ezelõtt készült, 17:00 UTC
Az előrejelzés 19-én 18 óra UTC és 20-én 18 óra UTC között érvényes
Keleti szél 5 kt
Látótávolság 10 km, vagy több
felhőtlen 1500 m magasságban, és nincs gomolyfelhõ

TAF: ENVA 191700Z 1918/2018 10005KT CAVOK

Meteorológiai megfigyelések és előrejelzések több, mint 4000 repülőtéren (METAR és TAF jelentéseket).

A térképen piros és sárga pontok jelzik az elérhető meteorológiai állomásokat.

Mozgassa az egeret a pont fölött, hogy megjelenjen az állomás neve.

Azután kattintson az időjárási megfigyelések és előrejelzések megtekintéséhez.

A térkép megváltoztatása: kattintson a fekete keresztel jelölt zöld gombra ráközelítéshez, a vonallal jelölt zöld gombra távolításhoz, vagy a zöld nyilakra a szomszédos térképek eléréséhez.


METAR-TAF: